Time;durP1;ratioP1;P1;durP2;ratioP2;P2;SDS_P1;SDS_P2;PMS_P1;PMS_P2;Temp;Humidity;BMP_temperature;BMP_pressure;BME280_temperature;BME280_humidity;BME280_pressure;Samples;Min_cycle;Max_cycle;Signal;HPM_P1;HPM_P2
2022/01/01 00:00:15;;;;;;;31.47;21.70;;;;;;;3.75;100.00;97389.00;5072540;28;20201;-89
2022/01/01 00:02:44;;;;;;;35.13;21.23;;;;;;;3.78;100.00;97402.03;5070737;28;20227;-89
2022/01/01 00:05:13;;;;;;;37.73;22.00;;;;;;;3.66;100.00;97391.78;5067427;28;20196;-89
2022/01/01 00:07:40;;;;;;;38.20;24.63;;;;;;;3.65;100.00;97401.66;5063724;28;20212;-89
2022/01/01 00:10:08;;;;;;;34.83;26.63;;;;;;;3.63;100.00;97403.66;5063144;28;20248;-89
2022/01/01 00:12:36;;;;;;;50.57;35.87;;;;;;;3.65;100.00;97390.97;5063896;28;20209;-89
2022/01/01 00:15:05;;;;;;;33.70;23.47;;;;;;;3.59;100.00;97388.94;5063720;28;20192;-89
2022/01/01 00:17:32;;;;;;;41.03;25.67;;;;;;;3.55;100.00;97392.94;5061062;28;20220;-89
2022/01/01 00:19:59;;;;;;;28.97;19.50;;;;;;;3.59;100.00;97396.09;5066189;28;20459;-89
2022/01/01 00:22:27;;;;;;;17.63;10.83;;;;;;;3.64;100.00;97397.31;5066278;28;20200;-89
2022/01/01 00:24:54;;;;;;;36.37;23.17;;;;;;;3.63;100.00;97400.16;5071531;28;20283;-89
2022/01/01 00:27:22;;;;;;;55.50;32.87;;;;;;;3.57;100.00;97396.28;5061375;28;20216;-89
2022/01/01 00:29:49;;;;;;;46.67;29.13;;;;;;;3.53;100.00;97392.25;5065089;28;20397;-89
2022/01/01 00:32:17;;;;;;;43.50;26.03;;;;;;;3.56;100.00;97389.28;5095136;27;20243;-89
2022/01/01 00:34:44;;;;;;;84.20;50.20;;;;;;;3.56;100.00;97393.78;5077376;28;20200;-89
2022/01/01 00:37:11;;;;;;;136.83;77.30;;;;;;;3.53;100.00;97392.25;5096726;28;20228;-89
2022/01/01 00:39:39;;;;;;;141.67;80.30;;;;;;;3.51;100.00;97391.56;5099680;27;20236;-90
2022/01/01 00:42:06;;;;;;;90.07;51.37;;;;;;;3.57;100.00;97401.63;5095687;28;20235;-90
2022/01/01 00:44:33;;;;;;;66.30;39.30;;;;;;;3.55;100.00;97390.28;5101263;28;20288;-90
2022/01/01 00:47:01;;;;;;;43.93;26.67;;;;;;;3.59;100.00;97382.75;5079983;28;20204;-89
2022/01/01 00:49:30;;;;;;;54.77;32.70;;;;;;;3.59;100.00;97380.09;5067015;28;20216;-89
2022/01/01 00:51:57;;;;;;;17.00;11.17;;;;;;;3.68;100.00;97377.28;5104085;27;20241;-89
2022/01/01 00:54:24;;;;;;;29.20;15.67;;;;;;;3.74;100.00;97373.94;5069427;28;20212;-89
2022/01/01 00:56:51;;;;;;;18.80;11.63;;;;;;;3.74;100.00;97357.94;5071447;28;20302;-89
2022/01/01 00:59:20;;;;;;;5.63;4.07;;;;;;;3.88;100.00;97366.31;5062972;28;20217;-90
2022/01/01 01:01:47;;;;;;;18.67;11.30;;;;;;;3.97;100.00;97366.19;5066447;28;20236;-89
2022/01/01 01:04:14;;;;;;;17.67;10.73;;;;;;;3.96;100.00;97363.66;5092874;28;20221;-89
2022/01/01 01:06:42;;;;;;;13.80;7.90;;;;;;;3.99;100.00;97366.84;5071506;28;20289;-89
2022/01/01 01:09:09;;;;;;;11.23;7.70;;;;;;;3.94;100.00;97360.31;5061972;28;20209;-89
2022/01/01 01:11:42;;;;;;;11.30;7.83;;;;;;;3.94;100.00;97373.69;5083380;28;20198;-89
2022/01/01 01:14:18;;;;;;;12.40;7.87;;;;;;;3.91;100.00;97366.00;5062507;28;20201;-89
2022/01/01 01:16:46;;;;;;;8.77;6.03;;;;;;;3.85;100.00;97356.78;5065703;28;20281;-89
2022/01/01 01:19:13;;;;;;;9.40;5.40;;;;;;;3.86;100.00;97357.63;5062828;28;20294;-89
2022/01/01 01:21:42;;;;;;;8.40;5.50;;;;;;;3.92;100.00;97364.97;5070686;28;20211;-89
2022/01/01 01:24:10;;;;;;;8.90;5.60;;;;;;;3.85;100.00;97362.13;5051306;28;20262;-89
2022/01/01 01:26:37;;;;;;;6.00;4.13;;;;;;;3.96;100.00;97355.66;5067468;28;20235;-89
2022/01/01 01:29:05;;;;;;;6.20;4.33;;;;;;;3.93;100.00;97348.78;5069387;28;20196;-89
2022/01/01 01:31:33;;;;;;;8.43;4.50;;;;;;;3.89;100.00;97359.97;5078200;28;20197;-89
2022/01/01 01:34:01;;;;;;;6.97;4.63;;;;;;;3.86;100.00;97368.31;5068320;28;20291;-89
2022/01/01 01:36:28;;;;;;;5.97;4.43;;;;;;;3.79;100.00;97358.28;5065405;28;20238;-89
2022/01/01 01:38:57;;;;;;;10.60;5.93;;;;;;;3.74;100.00;97357.94;5072987;28;20298;-89
2022/01/01 01:41:29;;;;;;;7.50;5.00;;;;;;;3.69;100.00;97360.25;5063304;28;20237;-89
2022/01/01 01:43:57;;;;;;;9.40;5.07;;;;;;;3.65;100.00;97355.41;5057551;28;20256;-89
2022/01/01 01:46:25;;;;;;;8.53;5.70;;;;;;;3.66;100.00;97351.72;5066785;28;20402;-89
2022/01/01 01:48:53;;;;;;;7.97;5.37;;;;;;;3.63;100.00;97346.72;5079617;28;20193;-89
2022/01/01 01:51:21;;;;;;;8.57;5.33;;;;;;;3.61;100.00;97341.53;5061732;28;20279;-89
2022/01/01 01:53:49;;;;;;;9.13;5.63;;;;;;;3.52;100.00;97337.19;5079720;28;20201;-89
2022/01/01 01:56:17;;;;;;;10.97;6.47;;;;;;;3.49;100.00;97342.03;5068414;28;20235;-90
2022/01/01 01:58:44;;;;;;;11.50;7.60;;;;;;;3.55;100.00;97350.22;5062997;28;20291;-89
2022/01/01 02:03:56;;;;;;;15.83;10.17;;;;;;;3.29;100.00;97355.63;5062736;28;20212;-89
2022/01/01 02:06:24;;;;;;;11.00;7.63;;;;;;;3.32;100.00;97349.09;5059504;28;20215;-89
2022/01/01 02:08:52;;;;;;;14.80;8.83;;;;;;;3.29;100.00;97349.44;5059174;28;20251;-89
2022/01/01 02:11:23;;;;;;;15.10;10.13;;;;;;;3.30;100.00;97356.47;5078274;28;20216;-89
2022/01/01 02:14:12;;;;;;;12.87;8.43;;;;;;;3.30;100.00;97356.47;5064026;28;20259;-89
2022/01/01 02:19:48;;;;;;;17.43;11.37;;;;;;;3.21;100.00;97352.06;5053553;28;20226;-88
2022/01/01 02:22:16;;;;;;;18.37;10.80;;;;;;;3.28;100.00;97358.44;5061144;28;20205;-89
2022/01/01 02:24:44;;;;;;;12.67;8.87;;;;;;;3.22;100.00;97357.25;5065379;28;20229;-88
2022/01/01 02:27:11;;;;;;;13.10;8.90;;;;;;;3.12;100.00;97353.03;5068384;28;20201;-90
2022/01/01 02:29:39;;;;;;;14.30;8.80;;;;;;;3.15;100.00;97355.41;5067353;28;20433;-89
2022/01/01 02:32:11;;;;;;;10.93;7.73;;;;;;;3.18;100.00;97350.56;5064240;28;20299;-89
2022/01/01 02:34:39;;;;;;;12.03;7.90;;;;;;;3.21;100.00;97344.06;5065863;28;20216;-89
2022/01/01 02:37:06;;;;;;;12.00;8.30;;;;;;;3.22;100.00;97340.41;5059717;28;20238;-89
2022/01/01 02:39:34;;;;;;;15.63;8.73;;;;;;;3.11;100.00;97343.34;5060806;28;20213;-89
2022/01/01 02:42:02;;;;;;;12.93;8.33;;;;;;;3.12;100.00;97345.03;5052690;28;20274;-89
2022/01/01 02:44:29;;;;;;;12.93;7.70;;;;;;;3.12;100.00;97337.84;5051618;28;20202;-89
2022/01/01 02:46:57;;;;;;;11.80;7.23;;;;;;;3.13;100.00;97338.69;5052496;28;20194;-89
2022/01/01 02:49:25;;;;;;;11.97;7.43;;;;;;;3.16;100.00;97343.69;5085292;28;20304;-89
2022/01/01 02:51:52;;;;;;;9.30;5.60;;;;;;;3.20;100.00;97332.56;5075926;28;20472;-89
2022/01/01 02:54:19;;;;;;;4.47;3.37;;;;;;;3.22;100.00;97340.41;5080367;28;20209;-89
2022/01/01 02:56:48;;;;;;;7.97;5.07;;;;;;;3.26;100.00;97336.41;5071614;28;20233;-89
2022/01/01 02:59:15;;;;;;;10.43;5.77;;;;;;;3.21;100.00;97330.72;5050268;28;20214;-89
2022/01/01 03:01:43;;;;;;;8.53;5.87;;;;;;;3.23;100.00;97348.22;5078187;28;20229;-89
2022/01/01 03:04:10;;;;;;;7.83;5.10;;;;;;;3.15;100.00;97342.84;5046153;28;20241;-90
2022/01/01 03:06:37;;;;;;;8.07;5.50;;;;;;;3.14;100.00;97341.22;5051059;28;20213;-89
2022/01/01 03:09:05;;;;;;;9.33;5.70;;;;;;;3.13;100.00;97331.53;5051832;28;20200;-89
2022/01/01 03:11:32;;;;;;;8.67;5.60;;;;;;;3.13;100.00;97328.03;5074677;28;20275;-90
2022/01/01 03:14:00;;;;;;;8.60;5.67;;;;;;;3.12;100.00;97343.19;5063155;28;20335;-89
2022/01/01 03:16:28;;;;;;;8.13;5.30;;;;;;;3.15;100.00;97345.53;5050073;28;20240;-89
2022/01/01 03:18:55;;;;;;;9.37;5.50;;;;;;;3.06;100.00;97348.34;5072785;28;20224;-90
2022/01/01 03:21:22;;;;;;;8.80;5.27;;;;;;;3.02;100.00;97345.97;5065582;28;20201;-90
2022/01/01 03:23:49;;;;;;;8.33;5.83;;;;;;;3.01;100.00;97359.47;5076472;28;20352;-89
2022/01/01 03:26:16;;;;;;;11.10;6.67;;;;;;;2.90;100.00;97355.25;5055890;28;20236;-90
2022/01/01 03:28:43;;;;;;;8.97;5.70;;;;;;;2.90;100.00;97360.56;5066021;28;20236;-89
2022/01/01 03:31:12;;;;;;;8.93;5.73;;;;;;;2.84;100.00;97355.03;5053494;28;20206;-89
2022/01/01 03:33:39;;;;;;;8.53;5.77;;;;;;;2.82;100.00;97360.53;5044631;28;20237;-89
2022/01/01 03:36:07;;;;;;;9.60;5.53;;;;;;;2.81;100.00;97360.69;5059435;28;20240;-90
2022/01/01 03:38:34;;;;;;;6.73;5.00;;;;;;;2.81;100.00;97364.19;5081783;28;20201;-89
2022/01/01 03:41:01;;;;;;;7.87;5.33;;;;;;;2.77;100.00;97370.84;5052675;28;20265;-89
2022/01/01 03:43:28;;;;;;;10.47;5.47;;;;;;;2.77;100.00;97368.19;5049904;28;20247;-89
2022/01/01 03:45:56;;;;;;;11.53;6.47;;;;;;;2.78;100.00;97385.84;5074546;28;20293;-89
2022/01/01 03:48:24;;;;;;;10.53;6.43;;;;;;;2.74;100.00;97381.81;5067213;28;20236;-89
2022/01/01 03:50:51;;;;;;;9.97;6.50;;;;;;;2.77;100.00;97386.84;5047578;28;20229;-89
2022/01/01 03:53:19;;;;;;;9.17;6.47;;;;;;;2.76;100.00;97395.84;5079682;28;20230;-89
2022/01/01 03:55:49;;;;;;;10.57;7.00;;;;;;;2.70;100.00;97380.47;5045487;28;20223;-89
2022/01/01 03:58:16;;;;;;;12.30;7.30;;;;;;;2.65;100.00;97390.75;5077845;28;20221;-90
2022/01/01 04:00:43;;;;;;;9.43;5.60;;;;;;;2.62;100.00;97378.59;5046926;28;20221;-89
2022/01/01 04:03:13;;;;;;;7.60;4.60;;;;;;;2.67;100.00;97380.78;5082369;28;20214;-90
2022/01/01 04:05:42;;;;;;;7.63;5.00;;;;;;;2.67;100.00;97386.94;5081495;28;20304;-90
2022/01/01 04:08:10;;;;;;;8.57;5.30;;;;;;;2.71;100.00;97384.81;5044955;28;20281;-90
2022/01/01 04:10:40;;;;;;;9.27;4.60;;;;;;;2.68;100.00;97382.44;5038951;28;20225;-89
2022/01/01 04:13:10;;;;;;;8.17;4.90;;;;;;;2.73;100.00;97396.13;5079865;28;20205;-90
2022/01/01 04:15:38;;;;;;;5.83;3.80;;;;;;;2.70;100.00;97396.47;5049317;28;20285;-91
2022/01/01 04:18:10;;;;;;;6.90;4.00;;;;;;;2.71;100.00;97386.63;5040137;28;20226;-90
2022/01/01 04:20:37;;;;;;;4.87;3.50;;;;;;;2.70;100.00;97385.81;5083207;28;20258;-90
2022/01/01 04:23:09;;;;;;;7.30;4.00;;;;;;;2.69;100.00;97388.63;5049677;28;20221;-90
2022/01/01 04:25:37;;;;;;;6.50;3.20;;;;;;;2.69;100.00;97373.47;5054600;28;20206;-89
2022/01/01 04:28:05;;;;;;;4.13;3.17;;;;;;;2.74;100.00;97378.31;5066634;28;20197;-90
2022/01/01 04:30:32;;;;;;;4.53;2.70;;;;;;;2.73;100.00;97366.78;5049816;28;20216;-89
2022/01/01 04:33:00;;;;;;;3.17;2.00;;;;;;;2.80;100.00;97365.22;5057060;28;20304;-89
2022/01/01 04:35:28;;;;;;;2.77;2.10;;;;;;;3.07;100.00;97368.66;5049462;28;20236;-90
2022/01/01 04:37:55;;;;;;;2.00;1.80;;;;;;;3.19;100.00;97365.59;5068601;28;20229;-90
2022/01/01 04:40:24;;;;;;;4.43;2.20;;;;;;;3.25;100.00;97366.75;5046250;28;20270;-90
2022/01/01 04:42:52;;;;;;;3.40;2.03;;;;;;;3.27;100.00;97372.78;5045151;28;20228;-90
2022/01/01 04:45:19;;;;;;;2.90;1.70;;;;;;;3.24;100.00;97367.75;5064336;28;20218;-90
2022/01/01 04:47:46;;;;;;;2.97;1.90;;;;;;;3.27;100.00;97370.13;5086214;28;20260;-90
2022/01/01 04:50:13;;;;;;;2.30;1.93;;;;;;;3.31;100.00;97360.81;5067156;28;20218;-88
2022/01/01 04:52:42;;;;;;;2.57;2.03;;;;;;;3.26;100.00;97368.44;5047642;28;20205;-90
2022/01/01 04:55:10;;;;;;;4.13;2.00;;;;;;;3.29;100.00;97365.47;5049015;28;20293;-90
2022/01/01 04:57:38;;;;;;;2.37;1.93;;;;;;;3.22;100.00;97362.59;5070947;28;20312;-89
2022/01/01 05:00:07;;;;;;;2.53;2.10;;;;;;;3.23;100.00;97366.91;5079031;28;20210;-89
2022/01/01 05:02:34;;;;;;;2.43;1.90;;;;;;;3.21;100.00;97365.41;5077036;28;20268;-89
2022/01/01 05:05:01;;;;;;;4.50;2.40;;;;;;;3.17;100.00;97372.91;5084341;28;20202;-89
2022/01/01 05:07:29;;;;;;;2.70;2.20;;;;;;;3.10;100.00;97382.53;5087250;28;20240;-90
2022/01/01 05:09:56;;;;;;;3.53;2.23;;;;;;;3.02;100.00;97378.00;5079286;28;20300;-89
2022/01/01 05:12:23;;;;;;;3.97;2.20;;;;;;;2.99;100.00;97380.97;5041909;28;20219;-90
2022/01/01 05:14:52;;;;;;;2.90;2.30;;;;;;;2.94;100.00;97377.13;5049429;28;20206;-90
2022/01/01 05:17:19;;;;;;;6.90;4.00;;;;;;;2.85;100.00;97389.56;5045487;28;20222;-91
2022/01/01 05:19:46;;;;;;;6.23;4.03;;;;;;;2.76;100.00;97384.31;5045119;28;20266;-90
2022/01/01 05:22:13;;;;;;;4.27;2.97;;;;;;;2.66;100.00;97398.59;5043706;28;20212;-90
2022/01/01 05:24:40;;;;;;;4.97;3.27;;;;;;;2.56;100.00;97402.34;5078461;28;20256;-90
2022/01/01 05:27:07;;;;;;;7.73;4.23;;;;;;;2.51;100.00;97405.47;5052327;28;20212;-90
2022/01/01 05:29:35;;;;;;;6.53;3.90;;;;;;;2.47;100.00;97395.25;5043329;28;20202;-89
2022/01/01 05:32:04;;;;;;;5.23;3.47;;;;;;;2.41;100.00;97401.22;5047481;28;20291;-90
2022/01/01 05:34:31;;;;;;;5.30;3.40;;;;;;;2.42;100.00;97417.06;5036835;28;20190;-90
2022/01/01 05:36:58;;;;;;;4.73;3.40;;;;;;;2.38;100.00;97415.72;5086284;28;20241;-90
2022/01/01 05:39:25;;;;;;;4.97;2.93;;;;;;;2.34;100.00;97411.66;5045122;28;20204;-90
2022/01/01 05:41:54;;;;;;;5.00;3.20;;;;;;;2.37;100.00;97410.53;5047387;28;20352;-90
2022/01/01 05:44:21;;;;;;;4.30;3.00;;;;;;;2.39;100.00;97424.53;5067405;28;20284;-90
2022/01/01 05:46:50;;;;;;;4.27;3.03;;;;;;;2.38;100.00;97404.22;5074514;28;20251;-90
2022/01/01 05:49:19;;;;;;;5.23;2.93;;;;;;;2.37;100.00;97415.88;5086138;28;20236;-90
2022/01/01 05:51:46;;;;;;;4.40;3.10;;;;;;;2.32;100.00;97412.81;5075791;28;20206;-90
2022/01/01 05:54:14;;;;;;;4.93;3.50;;;;;;;2.21;100.00;97420.03;5051872;28;20207;-90
2022/01/01 05:56:41;;;;;;;6.70;3.50;;;;;;;2.23;100.00;97434.03;5067872;28;20215;-89
2022/01/01 05:59:08;;;;;;;4.10;3.00;;;;;;;2.18;100.00;97431.00;5044978;28;20301;-90
2022/01/01 06:01:35;;;;;;;3.70;2.70;;;;;;;2.28;100.00;97445.09;5053425;28;20391;-90
2022/01/01 06:04:02;;;;;;;5.43;3.03;;;;;;;2.31;100.00;97437.78;5057535;28;20297;-90
2022/01/01 06:06:31;;;;;;;3.57;2.70;;;;;;;2.27;100.00;97432.78;5047532;28;20198;-90
2022/01/01 06:08:58;;;;;;;4.73;2.20;;;;;;;2.34;100.00;97435.66;5083349;28;20220;-90
2022/01/01 06:11:25;;;;;;;2.83;2.20;;;;;;;2.36;100.00;97430.19;5082348;28;20287;-90
2022/01/01 06:13:53;;;;;;;4.50;2.30;;;;;;;2.41;100.00;97423.38;5085772;28;20209;-90
2022/01/01 06:16:20;;;;;;;3.83;2.10;;;;;;;2.39;100.00;97428.03;5044547;28;20228;-90
2022/01/01 06:18:47;;;;;;;2.80;2.07;;;;;;;2.37;100.00;97421.19;5078509;28;20288;-90
2022/01/01 06:21:14;;;;;;;2.87;2.20;;;;;;;2.34;100.00;97405.50;5044775;28;20269;-90
2022/01/01 06:23:43;;;;;;;3.03;1.90;;;;;;;2.48;100.00;97410.28;5049135;28;20205;-91
2022/01/01 06:26:10;;;;;;;2.73;2.00;;;;;;;2.54;100.00;97397.19;5047111;28;20202;-90
2022/01/01 06:28:37;;;;;;;1.80;1.50;;;;;;;2.68;100.00;97382.44;5050976;28;20305;-90
2022/01/01 06:31:04;;;;;;;2.40;1.80;;;;;;;3.00;100.00;97377.31;5075393;28;20213;-90
2022/01/01 06:33:31;;;;;;;2.27;1.63;;;;;;;3.33;100.00;97385.47;5076564;28;20213;-90
2022/01/01 06:35:58;;;;;;;2.17;1.77;;;;;;;3.40;100.00;97374.00;5075855;28;20247;-90
2022/01/01 06:38:25;;;;;;;1.70;1.50;;;;;;;3.54;100.00;97369.06;5049720;28;20312;-90
2022/01/01 06:40:54;;;;;;;2.43;1.70;;;;;;;3.53;100.00;97373.56;5051121;28;20223;-89
2022/01/01 06:43:23;;;;;;;2.53;1.60;;;;;;;3.43;100.00;97367.50;5058477;28;20224;-90
2022/01/01 06:45:50;;;;;;;3.13;1.73;;;;;;;3.45;100.00;97370.03;5044819;28;20269;-90
2022/01/01 06:48:17;;;;;;;2.57;1.67;;;;;;;3.56;100.00;97370.59;5080801;28;20243;-90
2022/01/01 06:50:45;;;;;;;2.87;1.63;;;;;;;3.73;100.00;97358.13;5049587;28;20224;-90
2022/01/01 06:53:12;;;;;;;1.80;1.50;;;;;;;3.94;100.00;97368.34;5078560;28;20260;-90
2022/01/01 06:55:39;;;;;;;1.70;1.23;;;;;;;4.02;100.00;97349.63;5051370;28;20229;-89
2022/01/01 06:58:08;;;;;;;1.47;1.20;;;;;;;4.22;100.00;97359.03;5055712;28;20316;-89
2022/01/01 07:00:35;;;;;;;1.30;1.20;;;;;;;4.42;100.00;97348.84;5049907;28;20284;-89
2022/01/01 07:03:02;;;;;;;1.30;1.10;;;;;;;4.61;100.00;97355.66;5058654;28;20202;-90
2022/01/01 07:05:29;;;;;;;1.40;1.00;;;;;;;4.68;100.00;97343.31;5075565;28;20194;-91
2022/01/01 07:07:56;;;;;;;1.43;1.20;;;;;;;4.58;100.00;97340.81;5042670;28;20216;-90
2022/01/01 07:10:23;;;;;;;1.53;1.10;;;;;;;4.47;100.00;97343.81;5081791;28;20273;-90
2022/01/01 07:12:51;;;;;;;1.40;1.17;;;;;;;4.42;100.00;97354.19;5047185;28;20229;-90
2022/01/01 07:15:19;;;;;;;1.93;1.40;;;;;;;4.26;100.00;97338.97;5049527;28;20265;-89
2022/01/01 07:17:47;;;;;;;0.97;0.97;;;;;;;4.31;100.00;97347.34;5044921;28;20230;-90
2022/01/01 07:20:14;;;;;;;1.50;1.20;;;;;;;4.40;100.00;97351.69;5046676;28;20202;-89
2022/01/01 07:22:43;;;;;;;3.60;1.67;;;;;;;4.29;100.00;97348.50;5050514;28;20198;-90
2022/01/01 07:25:11;;;;;;;2.53;1.80;;;;;;;4.20;100.00;97358.34;5041419;28;20217;-89
2022/01/01 07:27:38;;;;;;;2.07;1.80;;;;;;;4.07;100.00;97350.84;5050665;28;20241;-90
2022/01/01 07:30:07;;;;;;;2.77;2.20;;;;;;;3.96;100.00;97352.97;5054436;28;20217;-89
2022/01/01 07:32:40;;;;;;;2.47;2.07;;;;;;;3.88;100.00;97360.97;5050697;28;20214;-90
2022/01/01 07:35:08;;;;;;;4.00;2.27;;;;;;;3.78;100.00;97355.78;5050274;28;20225;-90
2022/01/01 07:37:35;;;;;;;2.67;2.23;;;;;;;3.67;100.00;97346.22;5065955;28;20233;-89
2022/01/01 07:40:02;;;;;;;3.13;2.30;;;;;;;3.57;100.00;97358.91;5063829;28;20244;-90
2022/01/01 07:42:30;;;;;;;4.70;2.73;;;;;;;3.48;100.00;97364.38;5073117;28;20203;-90
2022/01/01 07:44:57;;;;;;;3.37;2.10;;;;;;;3.43;100.00;97364.84;5067344;28;20219;-90
2022/01/01 07:47:24;;;;;;;2.40;1.97;;;;;;;3.44;100.00;97361.19;5074292;28;20201;-90
2022/01/01 07:49:52;;;;;;;3.80;2.83;;;;;;;3.29;100.00;97366.28;5073495;28;20201;-90
2022/01/01 07:52:19;;;;;;;5.43;3.00;;;;;;;3.18;100.00;97382.59;5097923;27;20237;-89
2022/01/01 07:54:47;;;;;;;3.50;2.60;;;;;;;3.03;100.00;97379.69;5069640;28;20205;-90
2022/01/01 07:57:14;;;;;;;4.80;2.57;;;;;;;2.95;100.00;97384.97;5064365;28;20264;-91
2022/01/01 07:59:41;;;;;;;3.60;2.80;;;;;;;2.90;100.00;97386.41;5072640;28;20250;-90
2022/01/01 08:02:10;;;;;;;4.97;3.30;;;;;;;2.91;100.00;97396.94;5062085;28;20222;-91
2022/01/01 08:04:37;;;;;;;5.77;3.53;;;;;;;2.86;100.00;97396.56;5070642;28;20211;-90
2022/01/01 08:07:06;;;;;;;4.20;2.97;;;;;;;2.93;100.00;97397.63;5070412;28;20214;-89
2022/01/01 08:09:33;;;;;;;6.47;2.90;;;;;;;2.95;100.00;97402.81;5068368;28;20216;-88
2022/01/01 08:12:00;;;;;;;5.53;3.23;;;;;;;2.82;100.00;97389.88;5064566;28;20216;-90
2022/01/01 08:14:28;;;;;;;5.30;3.60;;;;;;;2.77;100.00;97386.84;5095201;28;20209;-91
2022/01/01 08:16:59;;;;;;;4.83;3.23;;;;;;;2.80;100.00;97391.88;5064822;28;20216;-90
2022/01/01 08:19:26;;;;;;;5.27;3.10;;;;;;;2.85;100.00;97394.06;5078587;28;20251;-91
2022/01/01 08:21:55;;;;;;;4.03;2.70;;;;;;;2.79;100.00;97387.53;5069641;28;20299;-90
2022/01/01 08:24:24;;;;;;;4.83;3.10;;;;;;;2.82;100.00;97402.38;5059774;28;20226;-92
2022/01/01 08:26:52;;;;;;;5.57;3.60;;;;;;;2.78;100.00;97399.19;5067302;28;20196;-91
2022/01/01 08:29:20;;;;;;;5.13;3.43;;;;;;;2.70;100.00;97393.81;5064454;28;20218;-91
2022/01/01 08:31:47;;;;;;;6.00;3.60;;;;;;;2.72;100.00;97397.16;5075955;28;20250;-91
2022/01/01 08:34:14;;;;;;;5.70;3.23;;;;;;;2.66;100.00;97395.94;5073758;28;20214;-90
2022/01/01 08:36:41;;;;;;;6.93;3.67;;;;;;;2.75;100.00;97401.31;5068198;28;20240;-91
2022/01/01 08:39:08;;;;;;;4.33;3.00;;;;;;;2.78;100.00;97415.19;5100413;28;20228;-90
2022/01/01 08:41:37;;;;;;;4.70;3.00;;;;;;;2.76;100.00;97401.16;5070824;28;20193;-91
2022/01/01 08:44:05;;;;;;;3.80;3.17;;;;;;;2.82;100.00;97405.03;5067549;28;20221;-90
2022/01/01 08:46:32;;;;;;;5.77;3.87;;;;;;;2.72;100.00;97402.50;5068330;28;20211;-91
2022/01/01 08:49:00;;;;;;;5.20;3.07;;;;;;;2.72;100.00;97394.50;5060782;28;20285;-92
2022/01/01 08:51:28;;;;;;;4.70;3.33;;;;;;;2.73;100.00;97390.81;5093832;27;20196;-90
2022/01/01 08:53:56;;;;;;;3.53;3.07;;;;;;;2.85;100.00;97404.72;5067651;28;20213;-89
2022/01/01 08:56:23;;;;;;;5.90;2.80;;;;;;;2.88;100.00;97402.59;5067263;28;20205;-90
2022/01/01 08:58:52;;;;;;;4.63;3.53;;;;;;;2.85;100.00;97394.91;5063307;28;20338;-89
2022/01/01 09:01:19;;;;;;;5.93;3.40;;;;;;;2.89;100.00;97411.44;5092090;28;20233;-89
2022/01/01 09:03:46;;;;;;;4.43;3.20;;;;;;;2.88;100.00;97405.28;5056017;28;20196;-90
2022/01/01 09:06:14;;;;;;;3.57;2.80;;;;;;;2.91;100.00;97401.44;5074024;28;20204;-89
2022/01/01 09:08:43;;;;;;;5.90;3.67;;;;;;;2.93;100.00;97405.63;5061628;28;20258;-89
2022/01/01 09:11:11;;;;;;;7.03;3.50;;;;;;;3.09;100.00;97402.22;5062867;28;20214;-89
2022/01/01 09:13:41;;;;;;;5.03;2.77;;;;;;;3.13;100.00;97410.75;5061166;28;20288;-90
2022/01/01 09:16:11;;;;;;;6.50;3.23;;;;;;;3.14;100.00;97409.75;5060455;28;20212;-89
2022/01/01 09:18:39;;;;;;;4.87;3.17;;;;;;;3.16;100.00;97407.75;5098143;27;20231;-90
2022/01/01 09:21:07;;;;;;;5.00;3.63;;;;;;;3.26;100.00;97413.81;5055510;28;20205;-90
2022/01/01 09:23:35;;;;;;;4.83;3.40;;;;;;;3.30;100.00;97407.19;5059130;28;20279;-89
2022/01/01 09:26:03;;;;;;;4.63;3.80;;;;;;;3.39;100.00;97415.06;5057177;28;20203;-89
2022/01/01 09:28:32;;;;;;;6.17;4.00;;;;;;;3.45;100.00;97413.59;5057998;28;20292;-90
2022/01/01 09:31:01;;;;;;;6.80;4.33;;;;;;;3.58;100.00;97413.97;5071103;28;20216;-89
2022/01/01 09:33:31;;;;;;;6.30;4.90;;;;;;;3.69;100.00;97416.34;5068119;28;20228;-90
2022/01/01 09:35:58;;;;;;;5.83;4.60;;;;;;;3.82;100.00;97421.25;5064126;28;20215;-90
2022/01/01 09:38:26;;;;;;;5.87;4.40;;;;;;;4.07;100.00;97419.50;5028407;28;20288;-90
2022/01/01 09:40:54;;;;;;;6.60;4.23;;;;;;;4.19;100.00;97419.00;5051263;28;20230;-89
2022/01/01 09:43:22;;;;;;;5.07;3.80;;;;;;;4.32;100.00;97418.53;5034907;28;20211;-89
2022/01/01 09:45:50;;;;;;;9.40;6.50;;;;;;;4.49;100.00;97419.38;5018087;28;20208;-89
2022/01/01 09:48:18;;;;;;;7.13;4.30;;;;;;;4.66;100.00;97420.22;5017824;28;20206;-89
2022/01/01 09:50:49;;;;;;;9.40;5.67;;;;;;;4.84;100.00;97415.53;5050024;28;20286;-89
2022/01/01 09:53:17;;;;;;;7.17;4.80;;;;;;;5.14;100.00;97408.63;5051655;28;20276;-89
2022/01/01 09:55:44;;;;;;;4.83;3.83;;;;;;;5.35;100.00;97408.94;5019571;28;20237;-90
2022/01/01 09:58:12;;;;;;;5.10;3.73;;;;;;;5.51;100.00;97410.72;5050473;28;20294;-89
2022/01/01 10:00:39;;;;;;;4.07;3.30;;;;;;;5.71;100.00;97401.25;5053217;28;20217;-90
2022/01/01 10:03:11;;;;;;;5.80;4.00;;;;;;;5.94;100.00;97390.63;5027021;28;20207;-90
2022/01/01 10:05:58;;;;;;;6.27;4.27;;;;;;;6.19;100.00;97402.03;5041752;28;20289;-89
2022/01/01 10:08:26;;;;;;;8.33;5.30;;;;;;;6.33;100.00;97404.78;5030658;28;20324;-90
2022/01/01 10:10:53;;;;;;;10.03;6.23;;;;;;;6.46;100.00;97390.78;5020993;28;20233;-90
2022/01/01 10:13:30;;;;;;;8.00;4.83;;;;;;;6.61;100.00;97372.91;5024650;28;20264;-89
2022/01/01 10:15:58;;;;;;;8.07;4.80;;;;;;;6.90;100.00;97371.28;5039347;28;20210;-89
2022/01/01 10:18:30;;;;;;;5.07;3.60;;;;;;;7.16;100.00;97377.06;5012571;28;20280;-89
2022/01/01 10:21:02;;;;;;;5.87;2.90;;;;;;;7.43;100.00;97373.75;5025723;28;20214;-89
2022/01/01 10:23:31;;;;;;;3.30;2.17;;;;;;;7.77;96.40;97370.47;5022935;28;20210;-89
2022/01/01 10:29:09;;;;;;;4.23;2.30;;;;;;;8.39;92.28;97371.84;5051870;28;20217;-90
2022/01/01 10:31:38;;;;;;;3.20;2.40;;;;;;;8.54;94.64;97367.22;5043338;28;20205;-90
2022/01/01 10:34:12;;;;;;;3.83;2.60;;;;;;;8.68;92.66;97364.44;5037802;28;20206;-90
2022/01/01 10:36:40;;;;;;;3.67;2.53;;;;;;;8.89;91.39;97360.91;5020980;28;20287;-89
2022/01/01 10:39:12;;;;;;;5.20;3.57;;;;;;;9.06;95.26;97354.19;5027909;28;20260;-89
2022/01/01 10:41:48;;;;;;;6.97;4.73;;;;;;;9.24;97.86;97359.09;5040321;28;20253;-89
2022/01/01 10:44:17;;;;;;;6.03;4.20;;;;;;;9.18;97.09;97349.13;5024552;28;20299;-89
2022/01/01 10:46:45;;;;;;;5.27;3.37;;;;;;;9.10;95.89;97342.00;5021804;28;20236;-89
2022/01/01 10:49:49;;;;;;;4.90;2.90;;;;;;;8.92;93.80;97360.53;5061639;28;20275;-89
2022/01/01 10:52:20;;;;;;;4.47;3.07;;;;;;;8.85;93.31;97365.00;5029126;28;20217;-89
2022/01/01 10:54:56;;;;;;;3.80;2.63;;;;;;;8.84;92.06;97347.22;5029474;28;20222;-89
2022/01/01 10:57:29;;;;;;;3.13;2.40;;;;;;;8.93;91.77;97346.00;5041134;28;20206;-90
2022/01/01 11:00:15;;;;;;;3.77;2.37;;;;;;;8.95;90.92;97343.97;5030435;28;20226;-89
2022/01/01 11:02:44;;;;;;;4.20;3.07;;;;;;;8.97;91.72;97346.47;5060876;28;20206;-89
2022/01/01 11:05:12;;;;;;;4.00;2.87;;;;;;;8.95;92.42;97341.25;5045303;28;20202;-89
2022/01/01 11:07:51;;;;;;;3.93;2.73;;;;;;;9.08;91.88;97338.69;5045291;28;20281;-88
2022/01/01 11:10:19;;;;;;;3.93;2.80;;;;;;;9.22;90.10;97336.06;5026684;28;20210;-90
2022/01/01 11:12:46;;;;;;;3.33;2.60;;;;;;;9.50;89.13;97328.78;5055657;28;20213;-89
2022/01/01 11:15:14;;;;;;;3.60;2.87;;;;;;;9.82;87.71;97322.69;5036830;28;20199;-89
2022/01/01 11:17:42;;;;;;;4.63;3.17;;;;;;;10.11;85.58;97316.16;5062626;28;20297;-89
2022/01/01 11:20:11;;;;;;;4.73;3.10;;;;;;;10.46;83.97;97319.53;5036245;28;20226;-89
2022/01/01 11:22:38;;;;;;;3.60;2.80;;;;;;;10.69;81.62;97310.22;5049799;28;20256;-89
2022/01/01 11:25:07;;;;;;;3.80;2.60;;;;;;;10.89;78.70;97302.94;5054676;28;20297;-89
2022/01/01 11:27:34;;;;;;;4.17;2.77;;;;;;;11.23;77.28;97308.09;5039756;28;20216;-89
2022/01/01 11:30:05;;;;;;;5.40;2.77;;;;;;;11.48;76.25;97310.16;5025774;28;20218;-88
2022/01/01 11:32:41;;;;;;;3.47;2.43;;;;;;;11.71;76.21;97305.06;5050142;28;20217;-88
2022/01/01 11:35:11;;;;;;;3.97;2.80;;;;;;;11.82;71.78;97290.91;5026645;28;20260;-88
2022/01/01 11:38:03;;;;;;;3.80;2.30;;;;;;;11.96;72.10;97295.19;5043723;28;20367;-89
2022/01/01 11:40:42;;;;;;;3.27;2.60;;;;;;;12.19;73.91;97285.69;5030523;28;20230;-89
2022/01/01 11:43:31;;;;;;;5.63;3.73;;;;;;;12.32;75.42;97280.22;5031439;28;20202;-89
2022/01/01 11:45:58;;;;;;;5.80;3.90;;;;;;;12.44;75.67;97283.84;5041200;28;20242;-89